createdAt,value
2023-03-17T00:01:41.136Z,6.27
2023-03-17T00:07:02.923Z,5.93
2023-03-17T00:12:25.048Z,7.07
2023-03-17T00:17:47.827Z,4.60
2023-03-17T00:23:24.540Z,10.47
2023-03-17T00:28:46.632Z,5.70
2023-03-17T00:34:12.365Z,9.80
2023-03-17T00:39:34.917Z,7.53
2023-03-17T00:44:56.425Z,5.50
2023-03-17T00:50:25.502Z,6.27
2023-03-17T00:55:48.004Z,6.67
2023-03-17T01:01:10.896Z,9.57
2023-03-17T01:06:32.776Z,5.50
2023-03-17T01:11:55.939Z,8.57
2023-03-17T01:17:18.792Z,12.93
2023-03-17T01:22:40.633Z,5.97
2023-03-17T01:28:02.354Z,6.70
2023-03-17T01:33:23.725Z,3.47
2023-03-17T01:38:48.275Z,7.93
2023-03-17T01:44:17.242Z,4.90
2023-03-17T01:49:39.812Z,5.93
2023-03-17T01:55:12.053Z,7.13
2023-03-17T02:00:34.465Z,8.67
2023-03-17T02:05:58.069Z,5.93
2023-03-17T02:11:21.236Z,7.17
2023-03-17T02:16:45.846Z,5.93
2023-03-17T02:22:11.529Z,7.27
2023-03-17T02:27:45.396Z,7.70
2023-03-17T02:33:07.239Z,6.37
2023-03-17T02:38:28.970Z,11.10
2023-03-17T02:43:50.688Z,5.10
2023-03-17T02:49:12.942Z,7.80
2023-03-17T02:54:34.507Z,8.93
2023-03-17T02:59:56.045Z,4.83
2023-03-17T03:05:17.453Z,6.20
2023-03-17T03:10:39.203Z,6.50
2023-03-17T03:16:00.830Z,5.63
2023-03-17T03:21:22.560Z,7.83
2023-03-17T03:26:44.071Z,6.70
2023-03-17T03:32:06.012Z,10.23
2023-03-17T03:37:27.642Z,6.27
2023-03-17T03:42:49.300Z,7.00
2023-03-17T03:48:11.403Z,11.47
2023-03-17T03:53:32.931Z,7.30
2023-03-17T03:58:54.425Z,8.00
2023-03-17T04:04:16.444Z,9.00
2023-03-17T04:09:39.163Z,9.30
2023-03-17T04:15:00.997Z,9.67
2023-03-17T04:20:22.670Z,10.37
2023-03-17T04:25:45.121Z,8.67
2023-03-17T04:31:07.829Z,9.00
2023-03-17T04:36:29.629Z,6.30
2023-03-17T04:41:51.356Z,8.27
2023-03-17T04:47:13.072Z,6.73
2023-03-17T04:52:38.196Z,7.50
2023-03-17T04:57:59.883Z,11.47
2023-03-17T05:03:27.106Z,7.27
2023-03-17T05:08:49.133Z,7.43
2023-03-17T05:14:10.804Z,7.80
2023-03-17T05:19:32.615Z,6.97
2023-03-17T05:24:54.070Z,7.53
2023-03-17T05:30:15.995Z,7.80
2023-03-17T05:35:37.833Z,6.67
2023-03-17T05:40:59.493Z,7.37
2023-03-17T05:46:21.858Z,11.03
2023-03-17T05:51:43.529Z,11.10
2023-03-17T05:57:05.235Z,6.83
2023-03-17T06:02:27.348Z,8.07
2023-03-17T06:07:54.882Z,6.23
2023-03-17T06:13:17.595Z,9.60
2023-03-17T06:18:39.432Z,7.77
2023-03-17T06:24:01.081Z,7.07
2023-03-17T06:29:22.891Z,8.67
2023-03-17T06:34:44.876Z,6.73
2023-03-17T06:40:10.338Z,8.10
2023-03-17T06:45:33.314Z,6.87
2023-03-17T06:50:55.261Z,7.93
2023-03-17T06:56:29.224Z,7.70
2023-03-17T07:01:52.293Z,6.53
2023-03-17T07:07:13.950Z,6.10
2023-03-17T07:12:36.049Z,7.80
2023-03-17T07:18:01.211Z,10.57
2023-03-17T07:23:23.794Z,10.50
2023-03-17T07:28:45.794Z,8.13
2023-03-17T07:34:07.949Z,8.97
2023-03-17T07:39:29.452Z,7.67
2023-03-17T07:44:51.553Z,8.60
2023-03-17T07:50:14.178Z,10.97
2023-03-17T07:55:38.218Z,8.40
2023-03-17T08:01:00.148Z,10.47
2023-03-17T08:06:22.477Z,7.67
2023-03-17T08:11:44.103Z,6.07
2023-03-17T08:17:06.580Z,7.40
2023-03-17T08:22:28.483Z,4.90
2023-03-17T08:27:50.408Z,7.77
2023-03-17T08:33:11.956Z,11.80
2023-03-17T08:38:38.440Z,6.87
2023-03-17T08:44:02.689Z,7.43
2023-03-17T08:49:24.564Z,9.60
2023-03-17T08:54:47.248Z,5.57
2023-03-17T09:00:12.303Z,6.20
2023-03-17T09:05:36.860Z,7.03
2023-03-17T09:11:00.188Z,7.00
2023-03-17T09:16:24.261Z,8.87
2023-03-17T09:21:46.306Z,5.57
2023-03-17T09:27:08.079Z,7.07
2023-03-17T09:32:29.744Z,6.97
2023-03-17T09:37:51.815Z,6.43
2023-03-17T09:43:37.289Z,7.07
2023-03-17T09:49:21.114Z,5.83
2023-03-17T09:54:42.947Z,7.33
2023-03-17T10:00:16.745Z,6.13
2023-03-17T10:05:39.060Z,8.90
2023-03-17T10:11:01.570Z,8.50
2023-03-17T10:16:28.447Z,5.80
2023-03-17T10:22:04.349Z,5.97
2023-03-17T10:27:28.241Z,8.63
2023-03-17T10:32:52.552Z,5.80
2023-03-17T10:38:22.342Z,8.00
2023-03-17T10:43:48.446Z,6.17
2023-03-17T10:49:18.269Z,6.37
2023-03-17T10:54:40.677Z,7.17
2023-03-17T11:00:05.216Z,6.13
2023-03-17T11:05:29.331Z,4.43
2023-03-17T11:10:57.086Z,10.40
2023-03-17T11:16:27.258Z,6.77
2023-03-17T11:21:57.614Z,6.73
2023-03-17T11:27:34.422Z,7.27
2023-03-17T11:33:10.163Z,5.83
2023-03-17T11:38:43.718Z,7.30
2023-03-17T11:44:29.059Z,6.23
2023-03-17T11:50:11.354Z,7.03
2023-03-17T11:55:35.389Z,8.33
2023-03-17T12:01:00.613Z,5.00
2023-03-17T12:06:40.637Z,6.07
2023-03-17T12:12:04.518Z,8.67
2023-03-17T12:17:38.205Z,6.20
2023-03-17T12:23:36.743Z,7.77
2023-03-17T12:29:12.739Z,5.40
2023-03-17T12:34:46.156Z,3.10
2023-03-17T12:40:16.268Z,6.37
2023-03-17T12:45:57.108Z,5.70
2023-03-17T12:52:04.268Z,5.43
2023-03-17T12:57:31.137Z,4.27
2023-03-17T13:03:24.739Z,11.10
2023-03-17T13:08:50.540Z,5.20
2023-03-17T13:14:36.272Z,8.73
2023-03-17T13:20:07.403Z,5.40
2023-03-17T13:25:49.970Z,5.80
2023-03-17T13:31:15.180Z,6.57
2023-03-17T13:37:26.452Z,7.80
2023-03-17T13:43:19.154Z,6.13
2023-03-17T13:48:41.847Z,6.90
2023-03-17T13:54:28.472Z,4.73
2023-03-17T14:00:22.574Z,6.17
2023-03-17T14:05:48.221Z,6.80
2023-03-17T14:11:27.702Z,5.77
2023-03-17T14:17:08.880Z,11.00
2023-03-17T14:22:30.465Z,6.87
2023-03-17T14:27:58.165Z,7.57
2023-03-17T14:33:26.890Z,5.50
2023-03-17T14:38:54.338Z,8.87
2023-03-17T14:44:16.633Z,8.63
2023-03-17T14:49:38.433Z,8.73
2023-03-17T14:55:01.121Z,10.53
2023-03-17T15:00:34.438Z,10.00
2023-03-17T15:06:24.886Z,10.17
2023-03-17T15:11:47.812Z,8.83
2023-03-17T15:17:19.649Z,18.67
2023-03-17T15:22:46.966Z,15.40
2023-03-17T15:28:20.050Z,15.67
2023-03-17T15:33:42.765Z,15.53
2023-03-17T15:39:04.847Z,12.83
2023-03-17T15:44:26.563Z,16.73
2023-03-17T15:49:49.714Z,15.27
2023-03-17T15:55:32.140Z,13.07
2023-03-17T16:00:58.143Z,17.90
2023-03-17T16:06:22.587Z,49.93
2023-03-17T16:11:44.334Z,12.67
2023-03-17T16:17:07.648Z,14.83
2023-03-17T16:22:39.616Z,15.83
2023-03-17T16:28:07.642Z,18.50
2023-03-17T16:33:38.263Z,16.30
2023-03-17T16:39:00.270Z,16.33
2023-03-17T16:44:22.387Z,15.40
2023-03-17T16:49:44.233Z,17.47
2023-03-17T16:55:08.313Z,19.53
2023-03-17T17:00:31.439Z,14.57
2023-03-17T17:05:53.054Z,15.63
2023-03-17T17:11:16.949Z,19.40
2023-03-17T17:16:42.219Z,18.27
2023-03-17T17:22:03.968Z,15.80
2023-03-17T17:27:26.197Z,15.67
2023-03-17T17:32:48.826Z,16.30
2023-03-17T17:38:19.729Z,19.13
2023-03-17T17:43:41.568Z,21.20
2023-03-17T17:49:03.674Z,20.70
2023-03-17T17:54:25.595Z,22.10
2023-03-17T17:59:47.077Z,18.07
2023-03-17T18:05:09.235Z,21.67
2023-03-17T18:10:31.597Z,25.47
2023-03-17T18:15:53.160Z,20.93
2023-03-17T18:21:15.199Z,20.03
2023-03-17T18:26:37.079Z,22.00
2023-03-17T18:31:58.967Z,19.57
2023-03-17T18:37:20.808Z,17.83
2023-03-17T18:42:42.170Z,20.80
2023-03-17T18:48:03.865Z,20.23
2023-03-17T18:53:26.212Z,20.40
2023-03-17T18:58:47.805Z,17.93
2023-03-17T19:04:09.342Z,19.27
2023-03-17T19:09:31.860Z,24.80
2023-03-17T19:14:53.944Z,17.10
2023-03-17T19:20:15.520Z,18.33
2023-03-17T19:25:37.056Z,22.20
2023-03-17T19:30:58.967Z,14.70
2023-03-17T19:36:21.000Z,18.63
2023-03-17T19:41:42.964Z,18.67
2023-03-17T19:47:08.152Z,16.83
2023-03-17T19:52:29.747Z,17.63
2023-03-17T19:57:51.866Z,16.83
2023-03-17T20:03:15.014Z,20.13
2023-03-17T20:08:37.149Z,17.77
2023-03-17T20:13:58.797Z,16.33
2023-03-17T20:19:21.276Z,17.53
2023-03-17T20:24:42.652Z,20.57
2023-03-17T20:30:05.911Z,18.63
2023-03-17T20:35:28.360Z,18.93
2023-03-17T20:40:49.754Z,19.43
2023-03-17T20:46:23.867Z,23.20
2023-03-17T20:51:46.480Z,25.47
2023-03-17T20:57:14.405Z,17.40
2023-03-17T21:02:36.259Z,18.40
2023-03-17T21:07:58.376Z,20.13
2023-03-17T21:13:20.085Z,16.70
2023-03-17T21:18:41.950Z,16.87
2023-03-17T21:24:05.664Z,15.80
2023-03-17T21:29:28.500Z,17.13
2023-03-17T21:34:49.789Z,19.03
2023-03-17T21:40:13.945Z,19.40
2023-03-17T21:45:35.764Z,21.20
2023-03-17T21:50:57.998Z,19.90
2023-03-17T21:56:21.012Z,17.97
2023-03-17T22:01:43.892Z,15.50
2023-03-17T22:07:05.727Z,20.40
2023-03-17T22:12:27.759Z,14.63
2023-03-17T22:17:49.354Z,18.80
2023-03-17T22:23:11.640Z,14.43
2023-03-17T22:28:33.177Z,16.50
2023-03-17T22:33:57.875Z,19.03
2023-03-17T22:39:19.581Z,18.57
2023-03-17T22:44:41.169Z,16.40
2023-03-17T22:50:02.939Z,14.33
2023-03-17T22:55:24.913Z,19.77
2023-03-17T23:00:48.525Z,16.50
2023-03-17T23:06:12.024Z,17.03
2023-03-17T23:11:33.631Z,18.20
2023-03-17T23:16:55.579Z,19.93
2023-03-17T23:22:17.676Z,13.73
2023-03-17T23:27:39.822Z,16.13
2023-03-17T23:33:04.949Z,15.73
2023-03-17T23:38:26.631Z,17.10
2023-03-17T23:43:49.289Z,16.60
2023-03-17T23:49:12.330Z,15.33
2023-03-17T23:54:33.989Z,15.50
2023-03-17T23:59:55.475Z,13.80
